ASN logo
ASN Wikibase Occurrence # 214421
Last updated: 24 September 2018
This information is added by users of ASN. Neither ASN nor the Flight Safety Foundation are responsible for the completeness or correctness of this information. If you feel this information is incomplete or incorrect, you can submit corrected information.

Date:14-AUG-2018
Time:04:18 LT
Type:Silhouette image of generic A332 model; specific model in this crash may look slightly different
Airbus A330-243
Owner/operator:Kuwait Airways
Registration: 9K-APB
C/n / msn: 1643
Fatalities:Fatalities: 0 / Occupants: 161
Other fatalities:0
Aircraft damage: Minor
Location:Cochin International Airport (COK/VOCI) -   India
Phase: Landing
Nature:International Scheduled Passenger
Departure airport:Kuwait International Airport (KWI/OKBK)
Destination airport:Cochin International Airport (COK/VOCI)
Narrative:
Kuwait Airways flight KU357 hit runway edge lights on landing at Cochin International Airport in India.
The aircraft, an Airbus A330-243, landed on runway 27 at 04:18 hours local time (22:48 UTC, August 13). It hit runway lights on the left shoulder of the runway but was able to return onto the runway.
It was raining at the time of the incident with a visibility of 1500-2500 m.
After a wheel change, the aircraft was able to perform the return flight with a delay of about four and a half hours.

In 2018 alone two similar incidents occurred at Cochin International Airport:
13 July 2018: A Qatar Airways Airbus A330-300, damaged runway edge lights during landing on runway 27 in rain
27 May 2018: A SriLankan Airlines A330-300 struck runway lights when it drifted to the side of the runway on landing in rain.


Weather reported at the time of the incident involving KU357:
VOCI 132330Z 00000KT 2500 BR FEW006 SCT012 OVC080 23/23 Q1007 NOSIG
VOCI 132300Z 07004KT 2500 -RA FEW006 SCT012 OVC080 24/23 Q1007 NOSIG
2248Z: incident time
VOCI 132230Z 00000KT 2000 BR FEW006 SCT012 OVC080 24/23 Q1007 TEMPO 1500 BR
VOCI 132200Z 00000KT 2500 BR FEW006 SCT012 OVC080 24/23 Q1007 NOSIG

Sources:

http://www.newindianexpress.com/cities/kochi/2018/aug/14/lucky-escape-for-161-passengers-as-kuwait-airways-flight-lands-off-centre-at-kochi-airport-1857733.html
https://www.flightradar24.com/data/aircraft/9k-apb
https://www.facebook.com/CochinInternationalAirport/posts/1923305654356296

13 July 2018 Qatar Airways A330 incident
27 May 2018 SriLankan A330 incident


Revision history:

Date/timeContributorUpdates
14-Aug-2018 09:33 harro Added
14-Aug-2018 09:39 harro Updated [Location, Destination airport, Source, Narrative]
14-Aug-2018 09:45 harro Updated [Source]
14-Aug-2018 09:57 harro Updated [Source]

Corrections or additions? ... Edit this accident description